Time,TemperatureF,DewpointF,PressureIn,WindDirection,WindDirectionDegrees,WindSpeedMPH,WindSpeedGustMPH,Humidity,HourlyPrecipIn,Conditions,Clouds,dailyrainin,SoftwareType,DateUTC
2017-05-24 00:00:00,63.1,59.2,29.61,WSW,252,0.0,0.0,87,0.00,,---,0.00,VWS V15.00,2017-05-24 04:00:00,
2017-05-24 00:10:00,62.8,58.9,29.60,WSW,252,0.0,0.0,87,0.00,,---,0.00,VWS V15.00,2017-05-24 04:10:00,
2017-05-24 00:20:00,62.4,58.5,29.60,WSW,252,0.0,0.0,87,0.00,,---,0.00,VWS V15.00,2017-05-24 04:20:00,
2017-05-24 00:30:00,62.1,58.5,29.60,WSW,252,0.0,0.0,88,0.00,,---,0.00,VWS V15.00,2017-05-24 04:30:00,
2017-05-24 00:40:00,62.0,58.7,29.60,WSW,252,0.0,0.0,89,0.00,,---,0.00,VWS V15.00,2017-05-24 04:40:00,
2017-05-24 00:50:00,61.8,58.8,29.60,WSW,252,0.0,0.0,90,0.00,,---,0.00,VWS V15.00,2017-05-24 04:50:00,
2017-05-24 01:00:00,61.5,58.5,29.59,WSW,252,0.0,0.0,90,0.00,,---,0.00,VWS V15.00,2017-05-24 05:00:00,
2017-05-24 01:10:00,61.1,58.2,29.58,WSW,252,0.0,0.0,90,0.00,,---,0.00,VWS V15.00,2017-05-24 05:10:00,
2017-05-24 01:20:00,60.8,58.2,29.58,WSW,252,0.0,0.0,91,0.00,,---,0.00,VWS V15.00,2017-05-24 05:20:00,
2017-05-24 01:30:00,60.6,58.0,29.58,WSW,252,0.0,0.0,91,0.00,,---,0.00,VWS V15.00,2017-05-24 05:30:00,
2017-05-24 01:40:00,60.5,57.9,29.58,WSW,252,0.0,0.0,91,0.00,,---,0.00,VWS V15.00,2017-05-24 05:40:00,
2017-05-24 01:50:00,60.3,58.0,29.58,WSW,252,0.0,0.0,92,0.00,,---,0.00,VWS V15.00,2017-05-24 05:50:00,
2017-05-24 02:00:00,60.2,57.9,29.57,WSW,252,0.0,0.0,92,0.00,,---,0.00,VWS V15.00,2017-05-24 06:00:00,
2017-05-24 02:10:00,59.8,57.5,29.56,WSW,252,0.0,0.0,92,0.00,,---,0.00,VWS V15.00,2017-05-24 06:10:00,
2017-05-24 02:20:00,59.6,57.3,29.57,WSW,252,0.0,0.0,92,0.00,,---,0.00,VWS V15.00,2017-05-24 06:20:00,
2017-05-24 02:30:00,59.5,57.2,29.57,WSW,252,0.0,0.0,92,0.00,,---,0.00,VWS V15.00,2017-05-24 06:30:00,
2017-05-24 02:40:00,59.1,56.8,29.56,WSW,252,0.0,0.0,92,0.00,,---,0.00,VWS V15.00,2017-05-24 06:40:00,
2017-05-24 02:50:00,58.8,56.8,29.56,WSW,252,0.0,0.0,93,0.00,,---,0.00,VWS V15.00,2017-05-24 06:50:00,
2017-05-24 03:00:00,58.5,56.5,29.57,WSW,252,0.0,0.0,93,0.00,,---,0.00,VWS V15.00,2017-05-24 07:00:00,
2017-05-24 03:10:00,58.4,56.4,29.57,WSW,252,0.0,0.0,93,0.00,,---,0.00,VWS V15.00,2017-05-24 07:10:00,
2017-05-24 03:20:00,58.4,56.4,29.57,WSW,252,0.0,0.0,93,0.00,,---,0.00,VWS V15.00,2017-05-24 07:20:00,
2017-05-24 03:30:00,58.4,56.4,29.56,WSW,252,0.0,0.0,93,0.00,,---,0.00,VWS V15.00,2017-05-24 07:30:00,
2017-05-24 03:40:00,58.5,56.8,29.56,WSW,252,0.0,0.0,94,0.00,,---,0.00,VWS V15.00,2017-05-24 07:40:00,
2017-05-24 03:50:00,58.5,56.8,29.55,WSW,252,0.0,0.0,94,0.00,,---,0.00,VWS V15.00,2017-05-24 07:50:00,
2017-05-24 04:00:00,58.4,56.7,29.55,WSW,252,0.0,0.0,94,0.00,,---,0.00,VWS V15.00,2017-05-24 08:00:00,
2017-05-24 04:10:00,58.5,56.8,29.54,WSW,251,0.0,0.0,94,0.00,,---,0.00,VWS V15.00,2017-05-24 08:10:00,
2017-05-24 04:20:00,58.7,57.0,29.54,SSW,211,0.0,0.0,94,0.00,,---,0.00,VWS V15.00,2017-05-24 08:20:00,
2017-05-24 04:30:00,59.0,57.3,29.54,SSW,211,0.0,0.0,94,0.00,,---,0.00,VWS V15.00,2017-05-24 08:30:00,
2017-05-24 04:40:00,59.2,57.5,29.55,SSW,211,0.0,0.0,94,0.00,,---,0.00,VWS V15.00,2017-05-24 08:40:00,
2017-05-24 04:50:00,59.5,57.8,29.55,SSW,211,0.0,0.0,94,0.00,,---,0.00,VWS V15.00,2017-05-24 08:50:00,
2017-05-24 05:00:00,59.8,58.1,29.55,SSW,211,0.0,0.0,94,0.00,,---,0.00,VWS V15.00,2017-05-24 09:00:00,
2017-05-24 05:10:00,60.0,58.3,29.55,SSW,211,0.0,0.0,94,0.00,,---,0.00,VWS V15.00,2017-05-24 09:10:00,
2017-05-24 05:20:00,60.5,58.8,29.56,SSW,211,0.0,0.0,94,0.00,,---,0.00,VWS V15.00,2017-05-24 09:20:00,
2017-05-24 05:30:00,60.7,59.0,29.55,SW,214,0.0,2.0,94,0.00,,---,0.00,VWS V15.00,2017-05-24 09:30:00,
2017-05-24 05:40:00,61.2,59.5,29.54,SW,233,2.0,4.0,94,0.00,,---,0.00,VWS V15.00,2017-05-24 09:40:00,
2017-05-24 05:50:00,62.0,60.3,29.54,SSE,157,0.0,6.0,94,0.00,,---,0.00,VWS V15.00,2017-05-24 09:50:00,
2017-05-24 06:00:00,62.9,60.8,29.53,SSE,147,2.0,9.0,93,0.00,,---,0.00,VWS V15.00,2017-05-24 10:00:00,
2017-05-24 06:10:00,64.0,61.9,29.53,WSW,254,4.0,11.0,93,0.00,,---,0.00,VWS V15.00,2017-05-24 10:10:00,
2017-05-24 06:20:00,63.9,60.9,29.53,SSW,213,7.0,9.0,90,0.00,,---,0.00,VWS V15.00,2017-05-24 10:20:00,
2017-05-24 06:30:00,63.9,61.2,29.53,South,190,5.0,8.0,91,0.00,,---,0.00,VWS V15.00,2017-05-24 10:30:00,
2017-05-24 06:40:00,63.9,61.2,29.53,South,186,3.0,7.0,91,0.00,,---,0.00,VWS V15.00,2017-05-24 10:40:00,
2017-05-24 06:50:00,64.0,61.0,29.52,SSW,213,0.0,4.0,90,0.00,,---,0.00,VWS V15.00,2017-05-24 10:50:00,
2017-05-24 07:00:00,64.1,61.1,29.53,SSW,207,2.0,5.0,90,0.00,,---,0.00,VWS V15.00,2017-05-24 11:00:00,
2017-05-24 07:10:00,64.6,61.9,29.52,South,190,2.0,6.0,91,0.00,,---,0.00,VWS V15.00,2017-05-24 11:10:00,
2017-05-24 07:20:00,64.9,61.6,29.52,SSW,213,3.0,6.0,89,0.00,,---,0.00,VWS V15.00,2017-05-24 11:20:00,
2017-05-24 07:30:00,64.9,61.6,29.53,SW,230,5.0,7.0,89,0.00,,---,0.00,VWS V15.00,2017-05-24 11:30:00,
2017-05-24 07:40:00,64.7,61.7,29.53,WSW,244,7.0,7.0,90,0.00,,---,0.00,VWS V15.00,2017-05-24 11:40:00,
2017-05-24 07:50:00,64.6,61.3,29.52,SSE,166,4.0,8.0,89,0.00,,---,0.00,VWS V15.00,2017-05-24 11:50:00,
2017-05-24 08:00:00,64.4,61.1,29.52,South,190,5.0,7.0,89,0.00,,---,0.00,VWS V15.00,2017-05-24 12:00:00,
2017-05-24 08:10:00,64.5,61.5,29.51,WSW,245,3.0,6.0,90,0.00,,---,0.00,VWS V15.00,2017-05-24 12:10:00,
2017-05-24 08:20:00,64.7,61.4,29.51,West,261,5.0,6.0,89,0.00,,---,0.00,VWS V15.00,2017-05-24 12:20:00,
2017-05-24 08:30:00,64.9,61.9,29.50,SSW,204,2.0,6.0,90,0.00,,---,0.00,VWS V15.00,2017-05-24 12:30:00,
2017-05-24 08:40:00,65.1,61.5,29.51,WSW,246,3.0,7.0,88,0.00,,---,0.00,VWS V15.00,2017-05-24 12:40:00,
2017-05-24 08:50:00,65.2,61.9,29.50,SW,220,2.0,6.0,89,0.00,,---,0.00,VWS V15.00,2017-05-24 12:50:00,
2017-05-24 09:00:00,65.3,61.7,29.50,WSW,239,2.0,7.0,88,0.00,,---,0.00,VWS V15.00,2017-05-24 13:00:00,
2017-05-24 09:10:00,65.1,61.5,29.49,SW,231,4.0,7.0,88,0.00,,---,0.00,VWS V15.00,2017-05-24 13:10:00,
2017-05-24 09:20:00,64.9,61.9,29.48,South,173,2.0,5.0,90,0.00,,---,0.00,VWS V15.00,2017-05-24 13:20:00,
2017-05-24 09:30:00,65.0,61.7,29.47,WSW,243,2.0,7.0,89,0.00,,---,0.00,VWS V15.00,2017-05-24 13:30:00,
2017-05-24 09:40:00,65.7,62.0,29.48,SSW,194,3.0,9.0,88,0.00,,---,0.00,VWS V15.00,2017-05-24 13:40:00,
2017-05-24 09:50:00,66.5,62.5,29.48,East,98,1.0,10.0,87,0.00,,---,0.00,VWS V15.00,2017-05-24 13:50:00,
2017-05-24 10:00:00,66.7,62.0,29.48,WSW,242,7.0,10.0,85,0.00,,---,0.00,VWS V15.00,2017-05-24 14:00:00,
2017-05-24 10:10:00,66.5,61.9,29.47,SW,231,4.0,11.0,85,0.00,,---,0.00,VWS V15.00,2017-05-24 14:10:00,
2017-05-24 10:20:00,66.7,62.0,29.46,South,189,3.0,9.0,85,0.00,,---,0.00,VWS V15.00,2017-05-24 14:20:00,
2017-05-24 10:30:00,67.1,63.1,29.45,SW,229,3.0,10.0,87,0.00,,---,0.00,VWS V15.00,2017-05-24 14:30:00,
2017-05-24 10:40:00,68.0,63.7,29.45,SW,219,1.0,6.0,86,0.00,,---,0.00,VWS V15.00,2017-05-24 14:40:00,
2017-05-24 10:50:00,68.0,63.0,29.45,WSW,251,3.0,8.0,84,0.00,,---,0.00,VWS V15.00,2017-05-24 14:50:00,
2017-05-24 11:00:00,67.6,62.9,29.44,South,188,1.0,7.0,85,0.00,,---,0.00,VWS V15.00,2017-05-24 15:00:00,
2017-05-24 11:10:00,66.9,62.6,29.44,SSW,209,3.0,5.0,86,0.01,,---,0.01,VWS V15.00,2017-05-24 15:10:00,
2017-05-24 11:20:00,65.8,62.5,29.44,WSW,246,0.0,6.0,89,0.01,,---,0.01,VWS V15.00,2017-05-24 15:20:00,
2017-05-24 11:30:00,65.4,62.1,29.45,SW,236,0.0,2.0,89,0.02,,---,0.02,VWS V15.00,2017-05-24 15:30:00,
2017-05-24 11:40:00,65.0,62.0,29.44,WSW,237,1.0,2.0,90,0.03,,---,0.03,VWS V15.00,2017-05-24 15:40:00,
2017-05-24 11:50:00,64.7,62.0,29.44,West,281,0.0,1.0,91,0.06,,---,0.06,VWS V15.00,2017-05-24 15:50:00,
2017-05-24 12:00:00,64.7,62.3,29.42,West,281,0.0,1.0,92,0.09,,---,0.09,VWS V15.00,2017-05-24 16:00:00,
2017-05-24 12:10:00,64.8,62.7,29.42,West,281,0.0,0.0,93,0.11,,---,0.11,VWS V15.00,2017-05-24 16:10:00,
2017-05-24 12:20:00,64.9,62.8,29.42,West,281,0.0,0.0,93,0.10,,---,0.11,VWS V15.00,2017-05-24 16:20:00,
2017-05-24 12:30:00,65.1,63.0,29.41,West,281,0.0,0.0,93,0.11,,---,0.12,VWS V15.00,2017-05-24 16:30:00,
2017-05-24 12:40:00,65.3,63.2,29.41,West,281,0.0,1.0,93,0.10,,---,0.12,VWS V15.00,2017-05-24 16:40:00,
2017-05-24 12:50:00,65.4,63.3,29.41,NW,320,0.0,2.0,93,0.09,,---,0.12,VWS V15.00,2017-05-24 16:50:00,
2017-05-24 13:00:00,65.2,63.1,29.40,NW,320,0.0,1.0,93,0.06,,---,0.12,VWS V15.00,2017-05-24 17:00:00,
2017-05-24 13:10:00,64.8,62.7,29.40,NW,320,0.0,0.0,93,0.04,,---,0.13,VWS V15.00,2017-05-24 17:10:00,
2017-05-24 13:20:00,64.5,62.4,29.38,WSW,255,1.0,3.0,93,0.02,,---,0.13,VWS V15.00,2017-05-24 17:20:00,
2017-05-24 13:30:00,64.2,62.1,29.39,North,5,0.0,4.0,93,0.10,,---,0.21,VWS V15.00,2017-05-24 17:30:00,
2017-05-24 13:40:00,63.9,62.1,29.40,SSW,202,1.0,4.0,94,0.20,,---,0.32,VWS V15.00,2017-05-24 17:40:00,
2017-05-24 13:50:00,63.3,61.5,29.39,NNW,329,0.0,5.0,94,0.39,,---,0.51,VWS V15.00,2017-05-24 17:50:00,
2017-05-24 14:00:00,62.0,60.0,29.38,NNW,327,0.0,4.0,93,0.51,,---,0.63,VWS V15.00,2017-05-24 18:00:00,
2017-05-24 14:10:00,61.3,59.6,29.38,West,277,2.0,3.0,94,0.51,,---,0.63,VWS V15.00,2017-05-24 18:10:00,
2017-05-24 14:20:00,61.3,59.6,29.39,WNW,286,1.0,3.0,94,0.55,,---,0.68,VWS V15.00,2017-05-24 18:20:00,
2017-05-24 14:30:00,61.1,59.4,29.37,NNW,340,5.0,8.0,94,0.66,,---,0.79,VWS V15.00,2017-05-24 18:30:00,
2017-05-24 14:40:00,60.7,59.0,29.38,South,173,1.0,5.0,94,0.62,,---,0.83,VWS V15.00,2017-05-24 18:40:00,
2017-05-24 14:50:00,60.4,58.7,29.39,West,265,2.0,5.0,94,0.73,,---,1.05,VWS V15.00,2017-05-24 18:50:00,
2017-05-24 15:00:00,60.1,58.4,29.38,East,93,0.0,6.0,94,0.97,,---,1.48,VWS V15.00,2017-05-24 19:00:00,
2017-05-24 15:10:00,59.9,58.2,29.38,NNW,339,5.0,6.0,94,1.14,,---,1.77,VWS V15.00,2017-05-24 19:10:00,
2017-05-24 15:20:00,59.8,58.4,29.38,WSW,240,1.0,12.0,95,1.44,,---,2.07,VWS V15.00,2017-05-24 19:20:00,
2017-05-24 15:30:00,59.6,58.2,29.38,NNW,330,0.0,4.0,95,1.63,,---,2.31,VWS V15.00,2017-05-24 19:30:00,
2017-05-24 15:40:00,59.6,58.2,29.38,NW,325,0.0,3.0,95,1.57,,---,2.36,VWS V15.00,2017-05-24 19:40:00,
2017-05-24 15:50:00,59.6,58.2,29.39,West,263,2.0,4.0,95,1.56,,---,2.39,VWS V15.00,2017-05-24 19:50:00,
2017-05-24 16:00:00,59.6,58.2,29.39,NW,315,0.0,2.0,95,1.47,,---,2.52,VWS V15.00,2017-05-24 20:00:00,
2017-05-24 16:10:00,59.6,58.2,29.38,NW,325,0.0,8.0,95,1.25,,---,2.73,VWS V15.00,2017-05-24 20:10:00,